Terminal Aerodrome Forecast
Issued by NWS

Home | Current Version | Previous Version | Text Only | Print | Product List | Glossary On
Versions: 1 2 3 4 5 6 7 8 9 10 11 12 13
000
FTUS42 TJSJ 210538
TAFISX
TAF
TISX 210538Z 2106/2206 08013KT P6SM VCSH SCT025 SCT040 SCT070
      TEMPO 2106/2108 08010G20KT RA BKN030
     FM211400 09014G23KT P6SM VCSH FEW025 SCT035
     FM212300 07010KT P6SM VCSH SCT025=

USA.gov is the U.S. government's official web portal to all federal, state and local government web resources and services.